Pagrindinis puslapis
METAR-TAF:

METAR-TAF

Oro uostai :

Luangnamta, Laosas

platuma: 20-57-38N, ilguma: 101-24-09E, Aukštis: 600 m

Dabartinis oras

Ataskaita buvo paskelbta 24 minutes, ne 01:00 UTC
Vėjas 2 kt iš Pietų
Temperatūra 23°C
Drėgmė 94%
Slėgis 1010 hPa
Matomumas: 1000 m
Su prošvaistėmis ne aukštis 1000 ft
Apsiniaukę ne aukštis 9000 ft
lietus

METAR: VLLN 050100Z 18002KT 1000 -RA BKN010 OVC090 23/22 Q1010 NOSIG

Laikas: 06:54 (01:24 UTC)

Prognozė

Ataskaita buvo paskelbta 2 valandos ir 24 minutes, ne 23:00 UTC
Prognozė galioja nuo 05 metu 00 UTC su 05 metu 24 UTC
Vėjas 4 kt iš Šiaurės Vakarų
Matomumas: 5000 m
Išsisklaidę debesys ne aukštis 1300 ft
Su prošvaistėmis ne aukštis 4000 ft
Su prošvaistėmis ne aukštis 9000 ft
lietus

TAF: VLLN 042300Z 0500/0524 32004KT 5000 RA SCT013 BKN040 BKN090

Orai ataskaitas ir orų prognozės (METAR, TAF).

turimą stotys yra geltonos ir raudonos taškus žemėlapyje.

Perkelti pele per norėdami pamatyti stoties vardą.

Tada spustelėkite, norėdami matyti oro stebėjimo ir prognozės.

Norėdami pakeisti žemėlapį: spustelėkite ant žalios mygtukų su juodo kryžiaus žemyn,; žalią mygtuką su brūkšneliu, jei norite nutolinti; arba žalių rodyklių gretimoms žemėlapius.


METAR-TAF: